Estación Meteorológica Peña el Pijo (Robertgarden) [ 01/30/23 14:50:37 CET ]

Fecha Hora Presion(HPa) Temp (°C) Humedad % Rocio (°C) Viento ( m/s) Direccion Lluvia 1Hora(mm) Lluvia 24H(mm) LLuvia Total(mm)
2010-Dec-31 01:01:15 1007.700 2.9 88 1.1         18.64
2010-Dec-31 02:03:17 1007.400 2.9 88 1.1         18.64
2010-Dec-31 03:01:17 1007.600 2.8 89 1.1         18.64
2010-Dec-31 04:01:19 1007.200 2.6 90 1.1         18.64
2010-Dec-31 05:01:17 1006.700 2.9 91 1.6         18.64
2010-Dec-31 06:01:11 1006.800 3.2 91 1.9         18.64
2010-Dec-31 07:01:13 1007.600 3.6 91 2.2         18.64
2010-Dec-31 08:01:10 1008.200 4.2 92 3.0     1.03 1.03 19.68
2010-Dec-31 09:01:11 1008.500 4.9 92 3.7     0.51 1.55 20.20
2010-Dec-31 10:01:12 1008.600 5.0 92 3.8       1.55 20.20
2010-Dec-31 11:01:13 1008.900 7.0 92 5.8       1.55 20.20
2010-Dec-31 12:01:12 1008.700 9.8 85 7.4       1.55 20.20
2010-Dec-31 13:01:13 1008.200 11.6 66 5.4       1.55 20.20
2010-Dec-31 14:01:12 1007.600 12.6 60 5.0       1.55 20.20
2010-Dec-31 15:01:19 1007.700 10.1 67 4.2       1.55 20.20
2010-Dec-31 16:01:14 1007.800 9.8 70 4.6       1.55 20.20
2010-Dec-31 17:01:16 1008.300 9.2 70 4.0       1.55 20.20
2010-Dec-31 18:01:14 1008.600 7.9 76 3.9       1.55 20.20
2010-Dec-31 19:01:17 1009.100 6.9 80 3.7       1.55 20.20
2010-Dec-31 20:01:21 1009.700 6.1 84 3.6     0.51 2.07 20.72
2010-Dec-31 21:01:13 1009.800 5.9 88 4.1       2.07 20.72
2010-Dec-31 22:01:13 1009.700 5.3 90 3.8       2.07 20.72
2010-Dec-31 23:01:18 1010.300 3.6 90 2.1       2.07 20.72

Temperatura Máxima:12°    Temperatura Mínima:
Presión Máxima:1010.300 Hpa    Presión Mínima:1006.700 Hpa


Volver